METAR Data
IDs: Format: Raw Decoded Include TAF

Data at: 1335 UTC 26 Feb 2021

EDLW 261320Z 28007KT 230V330 9999 FEW037 SCT045 11/02 Q1033